sensor_id;sensor_type;location;lat;lon;timestamp;P1;durP1;ratioP1;P2;durP2;ratioP2
22679;SDS011;11507;44.858;10.374;2023-01-10T00:00:24;10.68;;;6.40;;
22679;SDS011;11507;44.858;10.374;2023-01-10T00:02:53;14.32;;;7.65;;
22679;SDS011;11507;44.858;10.374;2023-01-10T00:07:45;12.90;;;7.85;;
22679;SDS011;11507;44.858;10.374;2023-01-10T00:10:11;15.98;;;8.57;;
22679;SDS011;11507;44.858;10.374;2023-01-10T00:12:39;14.13;;;8.38;;
22679;SDS011;11507;44.858;10.374;2023-01-10T00:15:24;16.58;;;8.90;;
22679;SDS011;11507;44.858;10.374;2023-01-10T00:20:17;19.30;;;10.57;;
22679;SDS011;11507;44.858;10.374;2023-01-10T00:22:47;16.40;;;9.05;;
22679;SDS011;11507;44.858;10.374;2023-01-10T00:25:17;15.68;;;9.13;;
22679;SDS011;11507;44.858;10.374;2023-01-10T00:27:47;14.18;;;9.23;;
22679;SDS011;11507;44.858;10.374;2023-01-10T00:30:29;12.18;;;8.43;;
22679;SDS011;11507;44.858;10.374;2023-01-10T00:32:55;14.77;;;8.02;;
22679;SDS011;11507;44.858;10.374;2023-01-10T00:37:50;17.00;;;9.25;;
22679;SDS011;11507;44.858;10.374;2023-01-10T00:40:23;14.35;;;8.68;;
22679;SDS011;11507;44.858;10.374;2023-01-10T00:42:50;14.95;;;9.05;;
22679;SDS011;11507;44.858;10.374;2023-01-10T00:45:34;15.63;;;9.27;;
22679;SDS011;11507;44.858;10.374;2023-01-10T00:50:26;15.77;;;9.10;;
22679;SDS011;11507;44.858;10.374;2023-01-10T00:55:19;15.25;;;9.00;;
22679;SDS011;11507;44.858;10.374;2023-01-10T01:00:11;14.35;;;8.57;;
22679;SDS011;11507;44.858;10.374;2023-01-10T01:02:37;14.02;;;8.38;;
22679;SDS011;11507;44.858;10.374;2023-01-10T01:07:29;15.10;;;8.17;;
22679;SDS011;11507;44.858;10.374;2023-01-10T01:12:40;20.35;;;11.95;;
22679;SDS011;11507;44.858;10.374;2023-01-10T01:17:33;18.73;;;11.88;;
22679;SDS011;11507;44.858;10.374;2023-01-10T01:20:02;21.00;;;11.70;;
22679;SDS011;11507;44.858;10.374;2023-01-10T01:22:28;17.75;;;10.68;;
22679;SDS011;11507;44.858;10.374;2023-01-10T01:24:55;18.70;;;11.55;;
22679;SDS011;11507;44.858;10.374;2023-01-10T01:29:47;18.75;;;9.82;;
22679;SDS011;11507;44.858;10.374;2023-01-10T01:34:38;13.32;;;7.88;;
22679;SDS011;11507;44.858;10.374;2023-01-10T01:37:06;12.45;;;7.55;;
22679;SDS011;11507;44.858;10.374;2023-01-10T01:39:32;11.65;;;7.05;;
22679;SDS011;11507;44.858;10.374;2023-01-10T01:44:30;12.65;;;7.15;;
22679;SDS011;11507;44.858;10.374;2023-01-10T01:47:05;12.27;;;7.43;;
22679;SDS011;11507;44.858;10.374;2023-01-10T01:49:35;13.00;;;7.45;;
22679;SDS011;11507;44.858;10.374;2023-01-10T01:52:07;12.25;;;6.78;;
22679;SDS011;11507;44.858;10.374;2023-01-10T01:54:39;11.13;;;6.55;;
22679;SDS011;11507;44.858;10.374;2023-01-10T01:59:38;9.60;;;5.72;;
22679;SDS011;11507;44.858;10.374;2023-01-10T02:02:09;11.52;;;6.35;;
22679;SDS011;11507;44.858;10.374;2023-01-10T02:04:47;10.90;;;6.22;;
22679;SDS011;11507;44.858;10.374;2023-01-10T02:07:22;11.50;;;6.40;;
22679;SDS011;11507;44.858;10.374;2023-01-10T02:10:05;11.65;;;7.15;;
22679;SDS011;11507;44.858;10.374;2023-01-10T02:12:33;12.05;;;6.80;;
22679;SDS011;11507;44.858;10.374;2023-01-10T02:15:00;11.77;;;6.22;;
22679;SDS011;11507;44.858;10.374;2023-01-10T02:17:28;9.95;;;5.93;;
22679;SDS011;11507;44.858;10.374;2023-01-10T02:19:59;10.60;;;6.00;;
22679;SDS011;11507;44.858;10.374;2023-01-10T02:30:45;9.93;;;5.70;;
22679;SDS011;11507;44.858;10.374;2023-01-10T02:44:07;10.43;;;6.05;;
22679;SDS011;11507;44.858;10.374;2023-01-10T02:46:39;13.50;;;6.63;;
22679;SDS011;11507;44.858;10.374;2023-01-10T02:49:07;10.38;;;5.88;;
22679;SDS011;11507;44.858;10.374;2023-01-10T02:59:13;10.95;;;5.90;;
22679;SDS011;11507;44.858;10.374;2023-01-10T03:02:07;13.30;;;6.05;;
22679;SDS011;11507;44.858;10.374;2023-01-10T03:10:45;11.48;;;6.90;;
22679;SDS011;11507;44.858;10.374;2023-01-10T03:13:26;10.27;;;6.35;;
22679;SDS011;11507;44.858;10.374;2023-01-10T03:15:54;12.38;;;6.35;;
22679;SDS011;11507;44.858;10.374;2023-01-10T03:18:32;10.15;;;5.95;;
22679;SDS011;11507;44.858;10.374;2023-01-10T03:21:14;11.32;;;6.05;;
22679;SDS011;11507;44.858;10.374;2023-01-10T03:23:42;12.57;;;6.20;;
22679;SDS011;11507;44.858;10.374;2023-01-10T03:26:11;10.95;;;6.38;;
22679;SDS011;11507;44.858;10.374;2023-01-10T03:31:16;9.68;;;6.63;;
22679;SDS011;11507;44.858;10.374;2023-01-10T03:33:54;11.38;;;7.03;;
22679;SDS011;11507;44.858;10.374;2023-01-10T03:36:28;9.43;;;5.85;;
22679;SDS011;11507;44.858;10.374;2023-01-10T03:41:58;9.68;;;5.80;;
22679;SDS011;11507;44.858;10.374;2023-01-10T03:44:41;11.05;;;5.80;;
22679;SDS011;11507;44.858;10.374;2023-01-10T03:50:14;13.20;;;6.57;;
22679;SDS011;11507;44.858;10.374;2023-01-10T03:52:45;11.00;;;6.65;;
22679;SDS011;11507;44.858;10.374;2023-01-10T03:55:12;11.00;;;6.93;;
22679;SDS011;11507;44.858;10.374;2023-01-10T03:57:45;11.32;;;6.70;;
22679;SDS011;11507;44.858;10.374;2023-01-10T04:00:12;10.82;;;6.78;;
22679;SDS011;11507;44.858;10.374;2023-01-10T04:02:40;10.32;;;6.05;;
22679;SDS011;11507;44.858;10.374;2023-01-10T04:05:06;10.43;;;5.93;;
22679;SDS011;11507;44.858;10.374;2023-01-10T04:07:33;10.63;;;6.18;;
22679;SDS011;11507;44.858;10.374;2023-01-10T04:10:02;10.10;;;6.15;;
22679;SDS011;11507;44.858;10.374;2023-01-10T04:12:29;11.73;;;5.13;;
22679;SDS011;11507;44.858;10.374;2023-01-10T04:14:55;7.65;;;3.90;;
22679;SDS011;11507;44.858;10.374;2023-01-10T04:17:21;7.53;;;3.70;;
22679;SDS011;11507;44.858;10.374;2023-01-10T04:19:47;6.00;;;3.20;;
22679;SDS011;11507;44.858;10.374;2023-01-10T04:24:39;6.68;;;3.50;;
22679;SDS011;11507;44.858;10.374;2023-01-10T04:29:31;5.57;;;3.50;;
22679;SDS011;11507;44.858;10.374;2023-01-10T04:34:23;5.32;;;2.85;;
22679;SDS011;11507;44.858;10.374;2023-01-10T04:39:15;4.72;;;2.50;;
22679;SDS011;11507;44.858;10.374;2023-01-10T04:41:41;4.57;;;2.17;;
22679;SDS011;11507;44.858;10.374;2023-01-10T04:46:32;5.10;;;2.00;;
22679;SDS011;11507;44.858;10.374;2023-01-10T04:48:59;3.67;;;1.88;;
22679;SDS011;11507;44.858;10.374;2023-01-10T04:53:51;3.10;;;1.40;;
22679;SDS011;11507;44.858;10.374;2023-01-10T04:58:44;2.55;;;1.30;;
22679;SDS011;11507;44.858;10.374;2023-01-10T05:01:15;2.85;;;1.23;;
22679;SDS011;11507;44.858;10.374;2023-01-10T05:03:48;2.67;;;1.30;;
22679;SDS011;11507;44.858;10.374;2023-01-10T05:06:16;2.67;;;1.00;;
22679;SDS011;11507;44.858;10.374;2023-01-10T05:08:43;3.25;;;1.13;;
22679;SDS011;11507;44.858;10.374;2023-01-10T05:11:09;1.85;;;0.73;;
22679;SDS011;11507;44.858;10.374;2023-01-10T05:13:37;2.28;;;0.70;;
22679;SDS011;11507;44.858;10.374;2023-01-10T05:16:03;1.60;;;0.60;;
22679;SDS011;11507;44.858;10.374;2023-01-10T05:18:29;1.52;;;0.60;;
22679;SDS011;11507;44.858;10.374;2023-01-10T05:21:05;2.67;;;0.50;;
22679;SDS011;11507;44.858;10.374;2023-01-10T05:26:09;1.30;;;0.50;;
22679;SDS011;11507;44.858;10.374;2023-01-10T05:28:39;2.53;;;0.60;;
22679;SDS011;11507;44.858;10.374;2023-01-10T05:31:06;1.23;;;0.50;;
22679;SDS011;11507;44.858;10.374;2023-01-10T05:33:33;2.08;;;0.50;;
22679;SDS011;11507;44.858;10.374;2023-01-10T05:36:01;1.23;;;0.40;;
22679;SDS011;11507;44.858;10.374;2023-01-10T05:38:28;0.57;;;0.30;;
22679;SDS011;11507;44.858;10.374;2023-01-10T05:40:55;1.00;;;0.40;;
22679;SDS011;11507;44.858;10.374;2023-01-10T05:43:24;1.45;;;0.30;;
22679;SDS011;11507;44.858;10.374;2023-01-10T05:45:52;1.20;;;0.50;;
22679;SDS011;11507;44.858;10.374;2023-01-10T05:50:44;1.85;;;0.80;;
22679;SDS011;11507;44.858;10.374;2023-01-10T05:53:11;1.48;;;0.60;;
22679;SDS011;11507;44.858;10.374;2023-01-10T05:55:37;2.00;;;0.98;;
22679;SDS011;11507;44.858;10.374;2023-01-10T06:00:29;1.52;;;0.70;;
22679;SDS011;11507;44.858;10.374;2023-01-10T06:02:56;0.77;;;0.40;;
22679;SDS011;11507;44.858;10.374;2023-01-10T06:07:48;1.77;;;0.70;;
22679;SDS011;11507;44.858;10.374;2023-01-10T06:10:15;2.00;;;0.80;;
22679;SDS011;11507;44.858;10.374;2023-01-10T06:12:41;1.17;;;0.50;;
22679;SDS011;11507;44.858;10.374;2023-01-10T06:15:08;1.38;;;0.60;;
22679;SDS011;11507;44.858;10.374;2023-01-10T06:17:34;1.30;;;0.57;;
22679;SDS011;11507;44.858;10.374;2023-01-10T06:20:00;0.98;;;0.45;;
22679;SDS011;11507;44.858;10.374;2023-01-10T06:24:52;0.90;;;0.43;;
22679;SDS011;11507;44.858;10.374;2023-01-10T06:27:20;0.75;;;0.30;;
22679;SDS011;11507;44.858;10.374;2023-01-10T06:29:46;1.45;;;0.40;;
22679;SDS011;11507;44.858;10.374;2023-01-10T06:34:39;0.65;;;0.30;;
22679;SDS011;11507;44.858;10.374;2023-01-10T06:39:32;0.95;;;0.25;;
22679;SDS011;11507;44.858;10.374;2023-01-10T06:44:30;1.08;;;0.30;;
22679;SDS011;11507;44.858;10.374;2023-01-10T06:46:56;1.17;;;0.32;;
22679;SDS011;11507;44.858;10.374;2023-01-10T06:51:49;0.98;;;0.40;;
22679;SDS011;11507;44.858;10.374;2023-01-10T06:54:15;1.10;;;0.30;;
22679;SDS011;11507;44.858;10.374;2023-01-10T06:56:41;0.63;;;0.30;;
22679;SDS011;11507;44.858;10.374;2023-01-10T07:01:33;0.88;;;0.25;;
22679;SDS011;11507;44.858;10.374;2023-01-10T07:04:00;1.90;;;0.50;;
22679;SDS011;11507;44.858;10.374;2023-01-10T07:06:27;1.42;;;0.57;;
22679;SDS011;11507;44.858;10.374;2023-01-10T07:08:53;1.60;;;0.52;;
22679;SDS011;11507;44.858;10.374;2023-01-10T07:11:20;1.42;;;0.60;;
22679;SDS011;11507;44.858;10.374;2023-01-10T07:16:16;3.13;;;0.70;;
22679;SDS011;11507;44.858;10.374;2023-01-10T07:18:43;3.00;;;0.60;;
22679;SDS011;11507;44.858;10.374;2023-01-10T07:23:36;1.00;;;0.30;;
22679;SDS011;11507;44.858;10.374;2023-01-10T07:26:04;1.13;;;0.43;;
22679;SDS011;11507;44.858;10.374;2023-01-10T07:28:33;1.58;;;0.40;;
22679;SDS011;11507;44.858;10.374;2023-01-10T07:31:01;1.15;;;0.50;;
22679;SDS011;11507;44.858;10.374;2023-01-10T07:33:32;2.70;;;0.70;;
22679;SDS011;11507;44.858;10.374;2023-01-10T07:35:59;2.47;;;1.00;;
22679;SDS011;11507;44.858;10.374;2023-01-10T07:38:25;3.28;;;1.10;;
22679;SDS011;11507;44.858;10.374;2023-01-10T07:40:52;4.53;;;1.70;;
22679;SDS011;11507;44.858;10.374;2023-01-10T07:45:43;5.97;;;2.15;;
22679;SDS011;11507;44.858;10.374;2023-01-10T07:48:11;5.40;;;2.40;;
22679;SDS011;11507;44.858;10.374;2023-01-10T07:50:37;5.53;;;2.03;;
22679;SDS011;11507;44.858;10.374;2023-01-10T07:53:04;4.20;;;1.42;;
22679;SDS011;11507;44.858;10.374;2023-01-10T07:55:32;2.58;;;1.00;;
22679;SDS011;11507;44.858;10.374;2023-01-10T07:58:00;1.52;;;0.70;;
22679;SDS011;11507;44.858;10.374;2023-01-10T08:00:27;1.15;;;0.50;;
22679;SDS011;11507;44.858;10.374;2023-01-10T08:02:54;1.15;;;0.40;;
22679;SDS011;11507;44.858;10.374;2023-01-10T08:05:22;0.75;;;0.40;;
22679;SDS011;11507;44.858;10.374;2023-01-10T08:07:49;1.63;;;0.50;;
22679;SDS011;11507;44.858;10.374;2023-01-10T08:12:41;1.20;;;0.40;;
22679;SDS011;11507;44.858;10.374;2023-01-10T08:17:34;2.28;;;0.40;;
22679;SDS011;11507;44.858;10.374;2023-01-10T08:20:01;5.55;;;0.50;;
22679;SDS011;11507;44.858;10.374;2023-01-10T08:22:29;1.30;;;0.38;;
22679;SDS011;11507;44.858;10.374;2023-01-10T08:24:56;1.15;;;0.52;;
22679;SDS011;11507;44.858;10.374;2023-01-10T08:29:48;0.88;;;0.40;;
22679;SDS011;11507;44.858;10.374;2023-01-10T08:32:15;1.15;;;0.40;;
22679;SDS011;11507;44.858;10.374;2023-01-10T08:34:42;1.70;;;0.60;;
22679;SDS011;11507;44.858;10.374;2023-01-10T08:37:11;2.88;;;0.80;;
22679;SDS011;11507;44.858;10.374;2023-01-10T08:39:41;2.70;;;0.80;;
22679;SDS011;11507;44.858;10.374;2023-01-10T08:42:07;4.97;;;1.27;;
22679;SDS011;11507;44.858;10.374;2023-01-10T08:44:35;5.85;;;1.67;;
22679;SDS011;11507;44.858;10.374;2023-01-10T08:47:03;5.55;;;2.00;;
22679;SDS011;11507;44.858;10.374;2023-01-10T08:51:57;6.35;;;2.45;;
22679;SDS011;11507;44.858;10.374;2023-01-10T08:54:23;5.93;;;2.20;;
22679;SDS011;11507;44.858;10.374;2023-01-10T08:56:51;5.38;;;2.20;;
22679;SDS011;11507;44.858;10.374;2023-01-10T08:59:17;5.10;;;1.80;;
22679;SDS011;11507;44.858;10.374;2023-01-10T09:01:49;5.10;;;1.90;;
22679;SDS011;11507;44.858;10.374;2023-01-10T09:04:15;6.38;;;3.17;;
22679;SDS011;11507;44.858;10.374;2023-01-10T09:06:44;7.65;;;3.50;;
22679;SDS011;11507;44.858;10.374;2023-01-10T09:09:10;7.97;;;3.45;;
22679;SDS011;11507;44.858;10.374;2023-01-10T09:11:36;6.53;;;2.88;;
22679;SDS011;11507;44.858;10.374;2023-01-10T09:14:04;6.45;;;2.90;;
22679;SDS011;11507;44.858;10.374;2023-01-10T09:16:31;4.97;;;2.17;;
22679;SDS011;11507;44.858;10.374;2023-01-10T09:19:01;4.95;;;1.80;;
22679;SDS011;11507;44.858;10.374;2023-01-10T09:21:27;3.20;;;1.20;;
22679;SDS011;11507;44.858;10.374;2023-01-10T09:23:53;3.38;;;1.30;;
22679;SDS011;11507;44.858;10.374;2023-01-10T09:26:20;4.35;;;1.50;;
22679;SDS011;11507;44.858;10.374;2023-01-10T09:28:47;2.72;;;1.17;;
22679;SDS011;11507;44.858;10.374;2023-01-10T09:31:13;2.65;;;1.00;;
22679;SDS011;11507;44.858;10.374;2023-01-10T09:33:40;2.35;;;1.02;;
22679;SDS011;11507;44.858;10.374;2023-01-10T09:36:09;1.98;;;0.80;;
22679;SDS011;11507;44.858;10.374;2023-01-10T09:38:40;2.03;;;0.70;;
22679;SDS011;11507;44.858;10.374;2023-01-10T09:43:45;3.05;;;1.30;;
22679;SDS011;11507;44.858;10.374;2023-01-10T09:52:22;2.25;;;0.80;;
22679;SDS011;11507;44.858;10.374;2023-01-10T09:54:56;4.30;;;0.50;;
22679;SDS011;11507;44.858;10.374;2023-01-10T09:57:26;1.13;;;0.50;;
22679;SDS011;11507;44.858;10.374;2023-01-10T09:59:53;3.05;;;0.60;;
22679;SDS011;11507;44.858;10.374;2023-01-10T10:02:38;3.53;;;0.60;;
22679;SDS011;11507;44.858;10.374;2023-01-10T10:05:19;1.08;;;0.40;;
22679;SDS011;11507;44.858;10.374;2023-01-10T10:07:55;1.48;;;0.47;;
22679;SDS011;11507;44.858;10.374;2023-01-10T10:10:40;0.95;;;0.35;;
22679;SDS011;11507;44.858;10.374;2023-01-10T10:13:20;1.13;;;0.43;;
22679;SDS011;11507;44.858;10.374;2023-01-10T10:16:25;0.93;;;0.30;;
22679;SDS011;11507;44.858;10.374;2023-01-10T10:18:58;2.00;;;0.30;;
22679;SDS011;11507;44.858;10.374;2023-01-10T10:27:21;1.73;;;0.52;;
22679;SDS011;11507;44.858;10.374;2023-01-10T10:32:58;2.88;;;0.40;;
22679;SDS011;11507;44.858;10.374;2023-01-10T10:35:38;1.52;;;0.30;;
22679;SDS011;11507;44.858;10.374;2023-01-10T10:38:11;1.88;;;0.35;;
22679;SDS011;11507;44.858;10.374;2023-01-10T10:40:47;0.70;;;0.30;;
22679;SDS011;11507;44.858;10.374;2023-01-10T10:43:18;4.03;;;0.40;;
22679;SDS011;11507;44.858;10.374;2023-01-10T10:48:37;1.42;;;0.45;;
22679;SDS011;11507;44.858;10.374;2023-01-10T10:54:12;1.52;;;0.63;;
22679;SDS011;11507;44.858;10.374;2023-01-10T10:56:39;1.77;;;0.73;;
22679;SDS011;11507;44.858;10.374;2023-01-10T10:59:06;3.05;;;0.70;;
22679;SDS011;11507;44.858;10.374;2023-01-10T11:01:33;1.05;;;0.50;;
22679;SDS011;11507;44.858;10.374;2023-01-10T11:04:02;1.48;;;0.60;;
22679;SDS011;11507;44.858;10.374;2023-01-10T11:06:34;1.77;;;0.35;;
22679;SDS011;11507;44.858;10.374;2023-01-10T11:09:03;1.60;;;0.40;;
22679;SDS011;11507;44.858;10.374;2023-01-10T11:11:36;1.92;;;0.50;;
22679;SDS011;11507;44.858;10.374;2023-01-10T11:14:08;2.33;;;0.40;;
22679;SDS011;11507;44.858;10.374;2023-01-10T11:16:38;2.17;;;0.50;;
22679;SDS011;11507;44.858;10.374;2023-01-10T11:19:09;1.20;;;0.50;;
22679;SDS011;11507;44.858;10.374;2023-01-10T11:21:56;3.42;;;0.30;;
22679;SDS011;11507;44.858;10.374;2023-01-10T11:24:34;2.22;;;0.57;;
22679;SDS011;11507;44.858;10.374;2023-01-10T11:27:21;1.65;;;0.40;;
22679;SDS011;11507;44.858;10.374;2023-01-10T11:29:51;0.82;;;0.30;;
22679;SDS011;11507;44.858;10.374;2023-01-10T11:32:30;0.85;;;0.32;;
22679;SDS011;11507;44.858;10.374;2023-01-10T11:35:00;1.35;;;0.40;;
22679;SDS011;11507;44.858;10.374;2023-01-10T11:37:33;1.70;;;0.50;;
22679;SDS011;11507;44.858;10.374;2023-01-10T11:42:42;2.58;;;1.08;;
22679;SDS011;11507;44.858;10.374;2023-01-10T11:47:47;1.85;;;0.82;;
22679;SDS011;11507;44.858;10.374;2023-01-10T11:50:23;2.33;;;0.50;;
22679;SDS011;11507;44.858;10.374;2023-01-10T11:52:54;1.10;;;0.40;;
22679;SDS011;11507;44.858;10.374;2023-01-10T11:55:32;2.63;;;0.70;;
22679;SDS011;11507;44.858;10.374;2023-01-10T11:58:09;2.08;;;0.50;;
22679;SDS011;11507;44.858;10.374;2023-01-10T12:00:46;1.98;;;0.57;;
22679;SDS011;11507;44.858;10.374;2023-01-10T12:03:28;2.87;;;0.50;;
22679;SDS011;11507;44.858;10.374;2023-01-10T12:05:59;2.20;;;0.63;;
22679;SDS011;11507;44.858;10.374;2023-01-10T12:08:36;2.88;;;0.88;;
22679;SDS011;11507;44.858;10.374;2023-01-10T12:16:14;3.63;;;0.60;;
22679;SDS011;11507;44.858;10.374;2023-01-10T12:18:44;1.02;;;0.50;;
22679;SDS011;11507;44.858;10.374;2023-01-10T12:21:13;2.22;;;0.60;;
22679;SDS011;11507;44.858;10.374;2023-01-10T12:23:45;3.92;;;0.50;;
22679;SDS011;11507;44.858;10.374;2023-01-10T12:26:15;1.58;;;0.40;;
22679;SDS011;11507;44.858;10.374;2023-01-10T12:28:47;1.20;;;0.47;;
22679;SDS011;11507;44.858;10.374;2023-01-10T12:31:22;1.83;;;0.40;;
22679;SDS011;11507;44.858;10.374;2023-01-10T12:33:58;0.88;;;0.30;;
22679;SDS011;11507;44.858;10.374;2023-01-10T12:36:42;1.02;;;0.50;;
22679;SDS011;11507;44.858;10.374;2023-01-10T12:39:24;1.67;;;0.60;;
22679;SDS011;11507;44.858;10.374;2023-01-10T12:44:59;1.23;;;0.50;;
22679;SDS011;11507;44.858;10.374;2023-01-10T12:50:15;1.57;;;0.30;;
22679;SDS011;11507;44.858;10.374;2023-01-10T12:53:27;0.95;;;0.40;;
22679;SDS011;11507;44.858;10.374;2023-01-10T12:56:08;0.75;;;0.35;;
22679;SDS011;11507;44.858;10.374;2023-01-10T12:58:44;1.77;;;0.60;;
22679;SDS011;11507;44.858;10.374;2023-01-10T13:01:30;1.73;;;0.47;;
22679;SDS011;11507;44.858;10.374;2023-01-10T13:04:06;2.40;;;0.47;;
22679;SDS011;11507;44.858;10.374;2023-01-10T13:06:37;1.27;;;0.45;;
22679;SDS011;11507;44.858;10.374;2023-01-10T13:09:08;2.35;;;0.50;;
22679;SDS011;11507;44.858;10.374;2023-01-10T13:11:44;2.08;;;0.45;;
22679;SDS011;11507;44.858;10.374;2023-01-10T13:14:21;4.85;;;0.50;;
22679;SDS011;11507;44.858;10.374;2023-01-10T13:17:06;1.75;;;0.50;;
22679;SDS011;11507;44.858;10.374;2023-01-10T13:22:56;1.38;;;0.50;;
22679;SDS011;11507;44.858;10.374;2023-01-10T13:28:06;0.68;;;0.30;;
22679;SDS011;11507;44.858;10.374;2023-01-10T13:30:52;1.55;;;0.40;;
22679;SDS011;11507;44.858;10.374;2023-01-10T13:34:08;3.42;;;0.50;;
22679;SDS011;11507;44.858;10.374;2023-01-10T13:36:15;1.10;;;0.40;;
22679;SDS011;11507;44.858;10.374;2023-01-10T13:41:21;1.52;;;0.40;;
22679;SDS011;11507;44.858;10.374;2023-01-10T13:46:43;0.85;;;0.32;;
22679;SDS011;11507;44.858;10.374;2023-01-10T13:49:23;0.75;;;0.32;;
22679;SDS011;11507;44.858;10.374;2023-01-10T13:52:28;2.72;;;0.60;;
22679;SDS011;11507;44.858;10.374;2023-01-10T13:54:57;1.63;;;0.50;;
22679;SDS011;11507;44.858;10.374;2023-01-10T13:57:48;2.58;;;0.50;;
22679;SDS011;11507;44.858;10.374;2023-01-10T14:00:24;2.65;;;0.35;;
22679;SDS011;11507;44.858;10.374;2023-01-10T14:06:18;1.17;;;0.40;;
22679;SDS011;11507;44.858;10.374;2023-01-10T14:09:02;1.02;;;0.40;;
22679;SDS011;11507;44.858;10.374;2023-01-10T14:11:57;1.67;;;0.43;;
22679;SDS011;11507;44.858;10.374;2023-01-10T14:14:25;2.38;;;0.60;;
22679;SDS011;11507;44.858;10.374;2023-01-10T14:19:46;1.23;;;0.55;;
22679;SDS011;11507;44.858;10.374;2023-01-10T14:25:04;1.15;;;0.40;;
22679;SDS011;11507;44.858;10.374;2023-01-10T14:27:44;1.02;;;0.40;;
22679;SDS011;11507;44.858;10.374;2023-01-10T14:30:16;1.70;;;0.40;;
22679;SDS011;11507;44.858;10.374;2023-01-10T14:32:50;0.90;;;0.30;;
22679;SDS011;11507;44.858;10.374;2023-01-10T14:35:19;1.77;;;0.60;;
22679;SDS011;11507;44.858;10.374;2023-01-10T14:37:55;1.25;;;0.40;;
22679;SDS011;11507;44.858;10.374;2023-01-10T14:40:25;1.17;;;0.45;;
22679;SDS011;11507;44.858;10.374;2023-01-10T14:42:54;5.07;;;0.90;;
22679;SDS011;11507;44.858;10.374;2023-01-10T14:48:29;2.00;;;0.52;;
22679;SDS011;11507;44.858;10.374;2023-01-10T14:51:12;2.30;;;0.70;;
22679;SDS011;11507;44.858;10.374;2023-01-10T14:53:43;4.68;;;0.80;;
22679;SDS011;11507;44.858;10.374;2023-01-10T14:56:43;2.75;;;0.50;;
22679;SDS011;11507;44.858;10.374;2023-01-10T15:04:58;2.17;;;0.68;;
22679;SDS011;11507;44.858;10.374;2023-01-10T15:10:49;1.20;;;0.45;;
22679;SDS011;11507;44.858;10.374;2023-01-10T15:13:25;2.17;;;0.50;;
22679;SDS011;11507;44.858;10.374;2023-01-10T15:15:55;1.48;;;0.40;;
22679;SDS011;11507;44.858;10.374;2023-01-10T15:20:58;1.63;;;0.50;;
22679;SDS011;11507;44.858;10.374;2023-01-10T15:26:30;3.28;;;0.60;;
22679;SDS011;11507;44.858;10.374;2023-01-10T15:32:12;1.70;;;0.70;;
22679;SDS011;11507;44.858;10.374;2023-01-10T15:35:14;1.60;;;0.40;;
22679;SDS011;11507;44.858;10.374;2023-01-10T15:37:49;2.25;;;0.70;;
22679;SDS011;11507;44.858;10.374;2023-01-10T15:40:23;4.72;;;0.60;;
22679;SDS011;11507;44.858;10.374;2023-01-10T15:43:09;2.53;;;0.45;;
22679;SDS011;11507;44.858;10.374;2023-01-10T15:45:50;1.40;;;0.57;;
22679;SDS011;11507;44.858;10.374;2023-01-10T15:48:35;2.33;;;0.50;;
22679;SDS011;11507;44.858;10.374;2023-01-10T15:53:57;2.50;;;0.77;;
22679;SDS011;11507;44.858;10.374;2023-01-10T15:56:32;1.63;;;0.60;;
22679;SDS011;11507;44.858;10.374;2023-01-10T15:59:04;3.63;;;0.80;;
22679;SDS011;11507;44.858;10.374;2023-01-10T16:04:27;3.15;;;1.00;;
22679;SDS011;11507;44.858;10.374;2023-01-10T16:07:07;2.63;;;0.82;;
22679;SDS011;11507;44.858;10.374;2023-01-10T16:12:35;4.03;;;0.90;;
22679;SDS011;11507;44.858;10.374;2023-01-10T16:15:24;4.60;;;1.10;;
22679;SDS011;11507;44.858;10.374;2023-01-10T16:17:54;5.35;;;0.80;;
22679;SDS011;11507;44.858;10.374;2023-01-10T16:20:38;1.98;;;0.90;;
22679;SDS011;11507;44.858;10.374;2023-01-10T16:25:57;1.80;;;0.68;;
22679;SDS011;11507;44.858;10.374;2023-01-10T16:28:25;3.13;;;0.77;;
22679;SDS011;11507;44.858;10.374;2023-01-10T16:30:56;1.95;;;0.60;;
22679;SDS011;11507;44.858;10.374;2023-01-10T16:33:22;2.78;;;0.90;;
22679;SDS011;11507;44.858;10.374;2023-01-10T16:35:53;1.55;;;0.73;;
22679;SDS011;11507;44.858;10.374;2023-01-10T16:38:20;3.85;;;0.90;;
22679;SDS011;11507;44.858;10.374;2023-01-10T16:40:47;2.40;;;0.85;;
22679;SDS011;11507;44.858;10.374;2023-01-10T16:43:17;4.10;;;0.95;;
22679;SDS011;11507;44.858;10.374;2023-01-10T16:45:50;2.25;;;0.80;;
22679;SDS011;11507;44.858;10.374;2023-01-10T16:48:28;2.97;;;0.73;;
22679;SDS011;11507;44.858;10.374;2023-01-10T16:51:12;2.55;;;1.00;;
22679;SDS011;11507;44.858;10.374;2023-01-10T16:53:41;3.72;;;1.10;;
22679;SDS011;11507;44.858;10.374;2023-01-10T16:56:09;4.85;;;1.20;;
22679;SDS011;11507;44.858;10.374;2023-01-10T16:58:40;4.35;;;1.15;;
22679;SDS011;11507;44.858;10.374;2023-01-10T17:01:07;6.65;;;1.50;;
22679;SDS011;11507;44.858;10.374;2023-01-10T17:03:45;5.28;;;1.83;;
22679;SDS011;11507;44.858;10.374;2023-01-10T17:06:11;7.57;;;1.48;;
22679;SDS011;11507;44.858;10.374;2023-01-10T17:08:38;4.05;;;1.58;;
22679;SDS011;11507;44.858;10.374;2023-01-10T17:11:05;5.47;;;2.40;;
22679;SDS011;11507;44.858;10.374;2023-01-10T17:13:38;6.68;;;2.30;;
22679;SDS011;11507;44.858;10.374;2023-01-10T17:16:06;4.32;;;1.95;;
22679;SDS011;11507;44.858;10.374;2023-01-10T17:20:59;3.75;;;1.40;;
22679;SDS011;11507;44.858;10.374;2023-01-10T17:23:25;3.30;;;1.20;;
22679;SDS011;11507;44.858;10.374;2023-01-10T17:26:02;3.38;;;1.15;;
22679;SDS011;11507;44.858;10.374;2023-01-10T17:28:29;3.55;;;1.33;;
22679;SDS011;11507;44.858;10.374;2023-01-10T17:30:56;3.47;;;1.50;;
22679;SDS011;11507;44.858;10.374;2023-01-10T17:33:23;3.78;;;1.27;;
22679;SDS011;11507;44.858;10.374;2023-01-10T17:35:51;2.95;;;1.38;;
22679;SDS011;11507;44.858;10.374;2023-01-10T17:38:19;2.97;;;1.25;;
22679;SDS011;11507;44.858;10.374;2023-01-10T17:40:46;3.10;;;1.48;;
22679;SDS011;11507;44.858;10.374;2023-01-10T17:43:13;9.02;;;1.80;;
22679;SDS011;11507;44.858;10.374;2023-01-10T17:45:41;3.80;;;2.05;;
22679;SDS011;11507;44.858;10.374;2023-01-10T17:48:08;3.08;;;1.63;;
22679;SDS011;11507;44.858;10.374;2023-01-10T17:50:38;5.28;;;1.80;;
22679;SDS011;11507;44.858;10.374;2023-01-10T17:53:04;4.53;;;1.77;;
22679;SDS011;11507;44.858;10.374;2023-01-10T17:55:30;4.97;;;2.25;;
22679;SDS011;11507;44.858;10.374;2023-01-10T18:00:23;6.25;;;2.30;;
22679;SDS011;11507;44.858;10.374;2023-01-10T18:02:50;4.30;;;1.80;;
22679;SDS011;11507;44.858;10.374;2023-01-10T18:05:22;6.13;;;1.67;;
22679;SDS011;11507;44.858;10.374;2023-01-10T18:10:14;4.03;;;1.60;;
22679;SDS011;11507;44.858;10.374;2023-01-10T18:15:05;3.33;;;1.33;;
22679;SDS011;11507;44.858;10.374;2023-01-10T18:17:33;3.50;;;1.35;;
22679;SDS011;11507;44.858;10.374;2023-01-10T18:19:59;3.50;;;1.48;;
22679;SDS011;11507;44.858;10.374;2023-01-10T18:22:25;3.58;;;1.48;;
22679;SDS011;11507;44.858;10.374;2023-01-10T18:25:09;5.90;;;1.33;;
22679;SDS011;11507;44.858;10.374;2023-01-10T18:30:01;5.00;;;1.52;;
22679;SDS011;11507;44.858;10.374;2023-01-10T18:32:27;5.97;;;1.80;;
22679;SDS011;11507;44.858;10.374;2023-01-10T18:34:57;4.38;;;1.58;;
22679;SDS011;11507;44.858;10.374;2023-01-10T18:37:24;3.92;;;1.50;;
22679;SDS011;11507;44.858;10.374;2023-01-10T18:42:17;3.88;;;1.35;;
22679;SDS011;11507;44.858;10.374;2023-01-10T18:44:43;2.78;;;1.13;;
22679;SDS011;11507;44.858;10.374;2023-01-10T18:47:09;3.10;;;1.13;;
22679;SDS011;11507;44.858;10.374;2023-01-10T18:52:01;4.35;;;1.30;;
22679;SDS011;11507;44.858;10.374;2023-01-10T18:56:56;4.07;;;1.40;;